Time;durP1;ratioP1;P1;durP2;ratioP2;P2;SDS_P1;SDS_P2;PMS_P1;PMS_P2;Temp;Humidity;BMP_temperature;BMP_pressure;BME280_temperature;BME280_humidity;BME280_pressure;Samples;Min_cycle;Max_cycle;Signal;HPM_P1;HPM_P2
2022/08/23 00:00:28;;;;;;;1999.90;999.90;;;;;;;;;;5052521;28;20406;-74
2022/08/23 00:02:56;;;;;;;1999.90;999.90;;;;;;;;;;5052866;28;20406;-74
2022/08/23 00:05:24;;;;;;;1999.90;999.90;;;;;;;;;;5053534;28;20391;-75
2022/08/23 00:07:52;;;;;;;1999.90;999.90;;;;;;;;;;5046106;28;20420;-75
2022/08/23 00:10:21;;;;;;;1999.90;999.90;;;;;;;;;;5046166;28;20406;-74
2022/08/23 00:12:49;;;;;;;1999.90;999.90;;;;;;;;;;5052298;28;20517;-73
2022/08/23 00:15:19;;;;;;;1999.90;999.90;;;;;;;;;;5049254;28;20403;-74
2022/08/23 00:17:47;;;;;;;1999.90;999.90;;;;;;;;;;5052272;28;20500;-73
2022/08/23 00:20:16;;;;;;;1999.90;999.90;;;;;;;;;;5067364;28;20414;-73
2022/08/23 00:22:43;;;;;;;1999.90;999.90;;;;;;;;;;5049633;28;21230;-73
2022/08/23 00:25:13;;;;;;;1999.90;999.90;;;;;;;;;;5050591;28;20392;-74
2022/08/23 00:27:42;;;;;;;1999.90;999.90;;;;;;;;;;5054837;28;20396;-73
2022/08/23 00:30:17;;;;;;;1999.90;999.90;;;;;;;;;;5051935;28;20386;-74
2022/08/23 00:32:45;;;;;;;1999.90;999.90;;;;;;;;;;5070579;28;20414;-74
2022/08/23 00:35:14;;;;;;;1999.90;999.90;;;;;;;;;;5050240;28;21138;-74
2022/08/23 00:37:53;;;;;;;1999.90;999.90;;;;;;;;;;5069174;28;20478;-74
2022/08/23 00:40:41;;;;;;;1999.90;999.90;;;;;;;;;;5049282;28;20485;-73
2022/08/23 00:48:54;;;;;;;1999.90;999.90;;;;;;;;;;5011064;28;20403;-72
2022/08/23 00:51:23;;;;;;;1999.90;999.90;;;;;;;;;;5037921;28;20413;-75
2022/08/23 00:53:55;;;;;;;1999.90;999.90;;;;;;;;;;5034406;28;20428;-73
2022/08/23 00:56:23;;;;;;;1999.90;999.90;;;;;;;;;;5051277;28;20539;-73
2022/08/23 00:58:54;;;;;;;1999.90;999.90;;;;;;;;;;5054826;28;20415;-74
2022/08/23 01:01:23;;;;;;;1999.90;999.90;;;;;;;;;;5052619;28;20393;-74
2022/08/23 01:03:53;;;;;;;1999.90;999.90;;;;;;;;;;5039025;28;20420;-75
2022/08/23 01:06:33;;;;;;;1999.90;999.90;;;;;;;;;;5054012;28;20416;-73
2022/08/23 01:09:02;;;;;;;1999.90;999.90;;;;;;;;;;5053573;28;20396;-73
2022/08/23 01:11:34;;;;;;;1999.90;999.90;;;;;;;;;;5054290;28;20429;-74
2022/08/23 01:14:04;;;;;;;1999.90;999.90;;;;;;;;;;5043734;28;20807;-74
2022/08/23 01:16:36;;;;;;;1999.90;999.90;;;;;;;;;;5055168;28;20394;-74
2022/08/23 01:19:05;;;;;;;1999.90;999.90;;;;;;;;;;5052421;28;20396;-75
2022/08/23 01:21:37;;;;;;;1999.90;999.90;;;;;;;;;;5053754;28;20406;-75
2022/08/23 01:24:09;;;;;;;1999.90;999.90;;;;;;;;;;5052169;28;20408;-74
2022/08/23 01:26:57;;;;;;;1999.90;999.90;;;;;;;;;;5052268;28;20427;-73
2022/08/23 01:29:25;;;;;;;1999.90;999.90;;;;;;;;;;5037084;28;20433;-73
2022/08/23 01:31:55;;;;;;;1999.90;999.90;;;;;;;;;;5050265;28;20397;-73
2022/08/23 01:34:25;;;;;;;1999.90;999.90;;;;;;;;;;5051732;28;20882;-74
2022/08/23 01:36:53;;;;;;;1999.90;999.90;;;;;;;;;;5054846;28;20522;-74
2022/08/23 01:39:22;;;;;;;1999.90;999.90;;;;;;;;;;5054850;28;20421;-73
2022/08/23 01:41:51;;;;;;;1999.90;999.90;;;;;;;;;;5056920;28;20418;-73
2022/08/23 01:44:19;;;;;;;1999.90;999.90;;;;;;;;;;5061012;28;20954;-73
2022/08/23 01:46:47;;;;;;;1999.90;999.90;;;;;;;;;;5035540;28;20601;-73
2022/08/23 01:49:21;;;;;;;1999.90;999.90;;;;;;;;;;5054795;28;20479;-72
2022/08/23 01:51:49;;;;;;;1999.90;999.90;;;;;;;;;;5062399;28;20472;-73
2022/08/23 01:54:17;;;;;;;1999.90;999.90;;;;;;;;;;5055356;28;20406;-73
2022/08/23 01:56:48;;;;;;;1999.90;999.90;;;;;;;;;;5052767;28;21336;-74
2022/08/23 01:59:19;;;;;;;1999.90;999.90;;;;;;;;;;5061713;28;20408;-72
2022/08/23 02:01:51;;;;;;;1999.90;999.90;;;;;;;;;;5042797;28;20394;-73
2022/08/23 02:04:21;;;;;;;1999.90;999.90;;;;;;;;;;5033329;28;20481;-73
2022/08/23 02:06:49;;;;;;;1999.90;999.90;;;;;;;;;;5044848;28;20406;-73
2022/08/23 02:09:21;;;;;;;1999.90;999.90;;;;;;;;;;5059232;28;20395;-73
2022/08/23 02:12:13;;;;;;;1999.90;999.90;;;;;;;;;;5049411;28;20704;-73
2022/08/23 02:14:42;;;;;;;1999.90;999.90;;;;;;;;;;5031804;28;20401;-73
2022/08/23 02:17:18;;;;;;;1999.90;999.90;;;;;;;;;;5047561;28;20401;-74
2022/08/23 02:19:46;;;;;;;1999.90;999.90;;;;;;;;;;5032051;28;20533;-73
2022/08/23 02:22:13;;;;;;;1999.90;999.90;;;;;;;;;;5036693;28;20401;-74
2022/08/23 02:24:43;;;;;;;1999.90;999.90;;;;;;;;;;5039929;28;20488;-73
2022/08/23 02:27:13;;;;;;;1999.90;999.90;;;;;;;;;;5020327;28;20883;-73
2022/08/23 02:29:45;;;;;;;1999.90;999.90;;;;;;;;;;5049811;28;20427;-73
2022/08/23 02:32:14;;;;;;;1999.90;999.90;;;;;;;;;;5054499;28;20399;-73
2022/08/23 02:34:42;;;;;;;1999.90;999.90;;;;;;;;;;5052769;28;20404;-72
2022/08/23 02:37:11;;;;;;;1999.90;999.90;;;;;;;;;;5016212;28;20405;-73
2022/08/23 02:39:39;;;;;;;1999.90;999.90;;;;;;;;;;5032068;28;20504;-72
2022/08/23 02:42:08;;;;;;;1999.90;999.90;;;;;;;;;;5024776;28;20415;-73
2022/08/23 02:44:41;;;;;;;1999.90;999.90;;;;;;;;;;5058623;28;20431;-72
2022/08/23 02:47:11;;;;;;;1999.90;999.90;;;;;;;;;;5049334;28;20411;-72
2022/08/23 02:49:44;;;;;;;1999.90;999.90;;;;;;;;;;5069216;28;20411;-73
2022/08/23 02:52:12;;;;;;;1999.90;999.90;;;;;;;;;;5052224;28;20407;-74
2022/08/23 02:54:41;;;;;;;1999.90;999.90;;;;;;;;;;5061399;28;20448;-74
2022/08/23 02:57:10;;;;;;;1999.90;999.90;;;;;;;;;;5052592;28;20420;-73
2022/08/23 02:59:38;;;;;;;1999.90;999.90;;;;;;;;;;5050537;28;20397;-73
2022/08/23 03:02:06;;;;;;;1999.90;999.90;;;;;;;;;;5051807;28;20393;-73
2022/08/23 03:04:40;;;;;;;1999.90;999.90;;;;;;;;;;5050947;28;20442;-72
2022/08/23 03:07:08;;;;;;;1999.90;999.90;;;;;;;;;;5061933;28;20481;-73
2022/08/23 03:09:36;;;;;;;1999.90;999.90;;;;;;;;;;5033301;28;20409;-74
2022/08/23 03:12:04;;;;;;;1999.90;999.90;;;;;;;;;;5043109;28;20468;-73
2022/08/23 03:14:36;;;;;;;1999.90;999.90;;;;;;;;;;5050672;28;20419;-73
2022/08/23 03:17:06;;;;;;;1999.90;999.90;;;;;;;;;;5054460;28;20386;-73
2022/08/23 03:19:34;;;;;;;1999.90;999.90;;;;;;;;;;5033443;28;20419;-73
2022/08/23 03:22:03;;;;;;;1999.90;999.90;;;;;;;;;;5048972;28;20689;-73
2022/08/23 03:24:31;;;;;;;1999.90;999.90;;;;;;;;;;5053538;28;20412;-72
2022/08/23 03:26:59;;;;;;;1999.90;999.90;;;;;;;;;;5033520;28;21207;-73
2022/08/23 03:29:27;;;;;;;1999.90;999.90;;;;;;;;;;5050685;28;20411;-73
2022/08/23 03:31:59;;;;;;;1999.90;999.90;;;;;;;;;;5050521;28;20406;-73
2022/08/23 03:34:28;;;;;;;1999.90;999.90;;;;;;;;;;5065358;28;20414;-74
2022/08/23 03:36:57;;;;;;;1999.90;999.90;;;;;;;;;;5032616;28;20407;-73
2022/08/23 03:39:27;;;;;;;1999.90;999.90;;;;;;;;;;5058655;28;20620;-73
2022/08/23 03:41:57;;;;;;;1999.90;999.90;;;;;;;;;;5059260;28;20928;-73
2022/08/23 03:44:28;;;;;;;1999.90;999.90;;;;;;;;;;5027462;28;21325;-72
2022/08/23 03:46:56;;;;;;;1999.90;999.90;;;;;;;;;;5044524;28;20427;-72
2022/08/23 03:49:25;;;;;;;1999.90;999.90;;;;;;;;;;5047692;28;20501;-73
2022/08/23 03:51:55;;;;;;;1999.90;999.90;;;;;;;;;;5042800;28;20828;-73
2022/08/23 03:54:23;;;;;;;1999.90;999.90;;;;;;;;;;5045748;28;20419;-73
2022/08/23 03:56:58;;;;;;;1999.90;999.90;;;;;;;;;;5034016;28;20408;-73
2022/08/23 03:59:29;;;;;;;1999.90;999.90;;;;;;;;;;5045485;28;21928;-73
2022/08/23 04:01:57;;;;;;;1999.90;999.90;;;;;;;;;;5054220;28;20391;-72
2022/08/23 04:04:26;;;;;;;1999.90;999.90;;;;;;;;;;5043333;28;20423;-74
2022/08/23 04:07:18;;;;;;;1999.90;999.90;;;;;;;;;;5038594;28;20466;-72
2022/08/23 04:09:46;;;;;;;1999.90;999.90;;;;;;;;;;5058379;28;20402;-73
2022/08/23 04:12:21;;;;;;;1999.90;999.90;;;;;;;;;;5056653;28;20418;-72
2022/08/23 04:14:49;;;;;;;1999.90;999.90;;;;;;;;;;5057985;28;20394;-72
2022/08/23 04:17:19;;;;;;;1999.90;999.90;;;;;;;;;;5029974;28;20487;-73
2022/08/23 04:19:49;;;;;;;1999.90;999.90;;;;;;;;;;5048122;28;20416;-72
2022/08/23 04:22:19;;;;;;;1999.90;999.90;;;;;;;;;;5057751;28;20403;-73
2022/08/23 04:24:47;;;;;;;1999.90;999.90;;;;;;;;;;5044470;28;20915;-73
2022/08/23 04:27:16;;;;;;;1999.90;999.90;;;;;;;;;;5046383;28;20400;-74
2022/08/23 04:29:46;;;;;;;1999.90;999.90;;;;;;;;;;5041590;28;20405;-73
2022/08/23 04:32:14;;;;;;;1999.90;999.90;;;;;;;;;;5040954;28;20404;-73
2022/08/23 04:34:56;;;;;;;1999.90;999.90;;;;;;;;;;5031426;28;20459;-71
2022/08/23 04:37:24;;;;;;;1999.90;999.90;;;;;;;;;;5030365;28;20893;-72
2022/08/23 04:42:41;;;;;;;1999.90;999.90;;;;;;;;;;5060299;28;20419;-72
2022/08/23 04:45:12;;;;;;;1999.90;999.90;;;;;;;;;;5045055;28;20546;-72
2022/08/23 04:47:44;;;;;;;1999.90;999.90;;;;;;;;;;5050491;28;20973;-72
2022/08/23 04:50:12;;;;;;;1999.90;999.90;;;;;;;;;;5048607;28;20394;-71
2022/08/23 04:52:58;;;;;;;1999.90;999.90;;;;;;;;;;5048027;28;21192;-72
2022/08/23 04:55:27;;;;;;;1999.90;999.90;;;;;;;;;;5030621;28;20413;-72
2022/08/23 04:58:05;;;;;;;1999.90;999.90;;;;;;;;;;5042029;28;20403;-72
2022/08/23 05:00:41;;;;;;;1999.90;999.90;;;;;;;;;;5047914;28;20422;-72
2022/08/23 05:03:09;;;;;;;1999.90;999.90;;;;;;;;;;5045728;28;20450;-72
2022/08/23 05:05:37;;;;;;;1999.90;999.90;;;;;;;;;;5028387;28;20478;-71
2022/08/23 05:08:05;;;;;;;1999.90;999.90;;;;;;;;;;5040890;28;20400;-72
2022/08/23 05:10:33;;;;;;;1999.90;999.90;;;;;;;;;;5043552;28;20459;-72
2022/08/23 05:13:01;;;;;;;1999.90;999.90;;;;;;;;;;5059634;28;20595;-72
2022/08/23 05:15:30;;;;;;;1999.90;999.90;;;;;;;;;;5059677;28;20431;-71
2022/08/23 05:18:05;;;;;;;1999.90;999.90;;;;;;;;;;5048731;28;20515;-71
2022/08/23 05:20:35;;;;;;;1999.90;999.90;;;;;;;;;;5048759;28;20489;-71
2022/08/23 05:23:03;;;;;;;1999.90;999.90;;;;;;;;;;5064973;28;20416;-71
2022/08/23 05:28:15;;;;;;;1999.90;999.90;;;;;;;;;;5051150;28;20534;-72
2022/08/23 05:30:43;;;;;;;1999.90;999.90;;;;;;;;;;5048396;28;21326;-72
2022/08/23 05:33:24;;;;;;;1999.90;999.90;;;;;;;;;;5030404;28;20844;-72
2022/08/23 05:35:52;;;;;;;1999.90;999.90;;;;;;;;;;5043392;28;20508;-72
2022/08/23 05:38:20;;;;;;;1999.90;999.90;;;;;;;;;;5043987;28;20439;-72
2022/08/23 05:40:49;;;;;;;1999.90;999.90;;;;;;;;;;5050223;28;20446;-72
2022/08/23 05:43:21;;;;;;;1999.90;999.90;;;;;;;;;;5049657;28;20562;-72
2022/08/23 05:45:58;;;;;;;1999.90;999.90;;;;;;;;;;5041475;28;21156;-72
2022/08/23 05:48:30;;;;;;;1999.90;999.90;;;;;;;;;;5066740;28;20402;-71
2022/08/23 05:51:08;;;;;;;1999.90;999.90;;;;;;;;;;5035734;28;20392;-72
2022/08/23 05:53:36;;;;;;;1999.90;999.90;;;;;;;;;;5061088;28;20434;-73
2022/08/23 05:56:12;;;;;;;1999.90;999.90;;;;;;;;;;5041924;28;20412;-72
2022/08/23 05:58:40;;;;;;;1999.90;999.90;;;;;;;;;;5045414;28;20399;-73
2022/08/23 06:01:09;;;;;;;1999.90;999.90;;;;;;;;;;5050974;28;20392;-72
2022/08/23 06:03:38;;;;;;;1999.90;999.90;;;;;;;;;;5043329;28;20495;-72
2022/08/23 06:06:06;;;;;;;1999.90;999.90;;;;;;;;;;5033449;28;20411;-72
2022/08/23 06:08:37;;;;;;;1999.90;999.90;;;;;;;;;;5044584;28;20396;-72
2022/08/23 06:11:06;;;;;;;1999.90;999.90;;;;;;;;;;5064309;28;20502;-72
2022/08/23 06:13:40;;;;;;;1999.90;999.90;;;;;;;;;;5059564;28;20421;-72
2022/08/23 06:16:07;;;;;;;1999.90;999.90;;;;;;;;;;5048950;28;20450;-71
2022/08/23 06:18:44;;;;;;;1999.90;999.90;;;;;;;;;;5041954;28;20395;-71
2022/08/23 06:21:31;;;;;;;1999.90;999.90;;;;;;;;;;5046524;28;20407;-72
2022/08/23 06:23:58;;;;;;;1999.90;999.90;;;;;;;;;;5058231;28;20412;-72
2022/08/23 06:26:30;;;;;;;1999.90;999.90;;;;;;;;;;5058401;28;20518;-72
2022/08/23 06:28:58;;;;;;;1999.90;999.90;;;;;;;;;;5044888;28;20397;-72
2022/08/23 06:31:45;;;;;;;1999.90;999.90;;;;;;;;;;5056741;28;20397;-72
2022/08/23 06:34:21;;;;;;;1999.90;999.90;;;;;;;;;;5029841;28;20388;-72
2022/08/23 06:37:04;;;;;;;1999.90;999.90;;;;;;;;;;5058572;28;20515;-71
2022/08/23 06:39:51;;;;;;;1999.90;999.90;;;;;;;;;;5046436;28;20491;-71
2022/08/23 06:42:48;;;;;;;1999.90;999.90;;;;;;;;;;5042218;28;20404;-72
2022/08/23 06:45:21;;;;;;;1999.90;999.90;;;;;;;;;;5054947;28;20432;-72
2022/08/23 06:48:02;;;;;;;1999.90;999.90;;;;;;;;;;5031891;28;20421;-71
2022/08/23 06:50:32;;;;;;;1999.90;999.90;;;;;;;;;;5065522;28;20401;-71
2022/08/23 06:53:38;;;;;;;1999.90;999.90;;;;;;;;;;5059457;28;20387;-73
2022/08/23 06:56:26;;;;;;;1999.90;999.90;;;;;;;;;;5046200;28;20391;-74
2022/08/23 06:59:05;;;;;;;1999.90;999.90;;;;;;;;;;5020730;28;20418;-75
2022/08/23 07:01:53;;;;;;;1999.90;999.90;;;;;;;;;;5045027;28;20411;-75
2022/08/23 07:04:26;;;;;;;1999.90;999.90;;;;;;;;;;5058115;28;20435;-76
2022/08/23 07:07:24;;;;;;;1999.90;999.90;;;;;;;;;;5048658;28;20480;-74
2022/08/23 07:10:09;;;;;;;1999.90;999.90;;;;;;;;;;5030582;28;20973;-74
2022/08/23 07:12:41;;;;;;;1999.90;999.90;;;;;;;;;;5048132;28;20444;-74
2022/08/23 07:15:10;;;;;;;1999.90;999.90;;;;;;;;;;5044182;28;20405;-75
2022/08/23 07:17:39;;;;;;;1999.90;999.90;;;;;;;;;;5058061;28;20430;-74
2022/08/23 07:20:07;;;;;;;1999.90;999.90;;;;;;;;;;5045651;28;20400;-74
2022/08/23 07:22:39;;;;;;;1999.90;999.90;;;;;;;;;;5047631;28;20412;-74
2022/08/23 07:25:08;;;;;;;1999.90;999.90;;;;;;;;;;5039855;28;20403;-75
2022/08/23 07:27:37;;;;;;;1999.90;999.90;;;;;;;;;;5049360;28;20408;-75
2022/08/23 07:30:07;;;;;;;1999.90;999.90;;;;;;;;;;5047245;28;20507;-76
2022/08/23 07:32:38;;;;;;;1999.90;999.90;;;;;;;;;;5047670;28;20400;-77
2022/08/23 07:35:18;;;;;;;1999.90;999.90;;;;;;;;;;5040607;28;20535;-75
2022/08/23 07:37:50;;;;;;;1999.90;999.90;;;;;;;;;;5049524;28;20393;-75
2022/08/23 07:40:18;;;;;;;1999.90;999.90;;;;;;;;;;5042435;28;20425;-76
2022/08/23 07:42:50;;;;;;;1999.90;999.90;;;;;;;;;;5039081;28;21344;-76
2022/08/23 07:45:18;;;;;;;1999.90;999.90;;;;;;;;;;5042736;28;20462;-77
2022/08/23 07:47:51;;;;;;;1999.90;999.90;;;;;;;;;;5035764;28;20398;-75
2022/08/23 07:50:19;;;;;;;1999.90;999.90;;;;;;;;;;5061996;28;20421;-76
2022/08/23 07:52:48;;;;;;;1999.90;999.90;;;;;;;;;;5058858;28;20514;-77
2022/08/23 07:55:19;;;;;;;1999.90;999.90;;;;;;;;;;5039386;28;33205;-77
2022/08/23 07:57:58;;;;;;;1999.90;999.90;;;;;;;;;;5031009;28;20455;-75
2022/08/23 08:00:27;;;;;;;1999.90;999.90;;;;;;;;;;5044999;28;20420;-75
2022/08/23 08:03:08;;;;;;;1999.90;999.90;;;;;;;;;;5063140;28;20482;-75
2022/08/23 08:05:56;;;;;;;1999.90;999.90;;;;;;;;;;5035624;28;20406;-75
2022/08/23 08:08:24;;;;;;;1999.90;999.90;;;;;;;;;;5064626;28;21162;-76
2022/08/23 08:10:54;;;;;;;1999.90;999.90;;;;;;;;;;5045734;28;20834;-75
2022/08/23 08:13:22;;;;;;;1999.90;999.90;;;;;;;;;;5061490;28;20980;-75
2022/08/23 08:15:51;;;;;;;1999.90;999.90;;;;;;;;;;5055623;28;20415;-75
2022/08/23 08:18:20;;;;;;;1999.90;999.90;;;;;;;;;;5042899;28;21824;-74
2022/08/23 08:21:13;;;;;;;1999.90;999.90;;;;;;;;;;5050553;28;21323;-74
2022/08/23 08:24:04;;;;;;;1999.90;999.90;;;;;;;;;;5027818;28;20379;-74
2022/08/23 08:26:45;;;;;;;1999.90;999.90;;;;;;;;;;5046196;28;20419;-74
2022/08/23 08:29:14;;;;;;;1999.90;999.90;;;;;;;;;;5043522;28;20517;-74
2022/08/23 08:31:44;;;;;;;1999.90;999.90;;;;;;;;;;5040082;28;21721;-74
2022/08/23 08:34:13;;;;;;;1999.90;999.90;;;;;;;;;;5050131;28;20418;-73
2022/08/23 08:36:42;;;;;;;1999.90;999.90;;;;;;;;;;5056225;28;20442;-73
2022/08/23 08:39:17;;;;;;;1999.90;999.90;;;;;;;;;;5047146;28;20381;-74
2022/08/23 08:41:51;;;;;;;1999.90;999.90;;;;;;;;;;5032651;28;20405;-74
2022/08/23 08:44:35;;;;;;;1999.90;999.90;;;;;;;;;;5026458;28;20931;-74
2022/08/23 08:47:07;;;;;;;1999.90;999.90;;;;;;;;;;5043623;28;20423;-74
2022/08/23 08:49:37;;;;;;;1999.90;999.90;;;;;;;;;;5049883;28;20443;-75
2022/08/23 08:52:09;;;;;;;1999.90;999.90;;;;;;;;;;5067959;28;21118;-74
2022/08/23 08:54:38;;;;;;;1999.90;999.90;;;;;;;;;;5043412;28;20847;-74
2022/08/23 08:57:08;;;;;;;1999.90;999.90;;;;;;;;;;5031889;28;20391;-74
2022/08/23 08:59:47;;;;;;;1999.90;999.90;;;;;;;;;;5046032;28;21079;-74
2022/08/23 09:02:18;;;;;;;1999.90;999.90;;;;;;;;;;5057508;28;20431;-73
2022/08/23 09:05:00;;;;;;;1999.90;999.90;;;;;;;;;;5029548;28;20478;-73
2022/08/23 09:07:30;;;;;;;1999.90;999.90;;;;;;;;;;5046981;28;21080;-74
2022/08/23 09:10:15;;;;;;;1999.90;999.90;;;;;;;;;;5040873;28;21126;-75
2022/08/23 09:13:02;;;;;;;1999.90;999.90;;;;;;;;;;5050876;28;20883;-74
2022/08/23 09:15:36;;;;;;;1999.90;999.90;;;;;;;;;;5061717;28;20490;-73
2022/08/23 09:18:08;;;;;;;1999.90;999.90;;;;;;;;;;5048408;28;20400;-74
2022/08/23 09:20:37;;;;;;;1999.90;999.90;;;;;;;;;;5040984;28;20387;-73
2022/08/23 09:23:08;;;;;;;1999.90;999.90;;;;;;;;;;5031591;28;20777;-73
2022/08/23 09:25:38;;;;;;;1999.90;999.90;;;;;;;;;;5045232;28;20406;-75
2022/08/23 09:28:14;;;;;;;1999.90;999.90;;;;;;;;;;5045632;28;20434;-75
2022/08/23 09:30:47;;;;;;;1999.90;999.90;;;;;;;;;;5044449;28;20460;-73
2022/08/23 09:33:16;;;;;;;1999.90;999.90;;;;;;;;;;5059653;28;20422;-74
2022/08/23 09:35:52;;;;;;;1999.90;999.90;;;;;;;;;;5031705;28;20492;-74
2022/08/23 09:38:20;;;;;;;1999.90;999.90;;;;;;;;;;5053109;28;20520;-74
2022/08/23 09:40:53;;;;;;;1999.90;999.90;;;;;;;;;;5045735;28;20445;-74
2022/08/23 09:43:42;;;;;;;1999.90;999.90;;;;;;;;;;5030732;28;20419;-74
2022/08/23 09:46:11;;;;;;;1999.90;999.90;;;;;;;;;;5028932;28;20480;-74
2022/08/23 09:48:40;;;;;;;1999.90;999.90;;;;;;;;;;5047708;28;20912;-74
2022/08/23 09:51:17;;;;;;;1999.90;999.90;;;;;;;;;;5049858;28;20553;-74
2022/08/23 09:53:48;;;;;;;1999.90;999.90;;;;;;;;;;5062762;28;20410;-74
2022/08/23 09:56:19;;;;;;;1999.90;999.90;;;;;;;;;;5050054;28;21643;-74
2022/08/23 09:58:51;;;;;;;1999.90;999.90;;;;;;;;;;5031870;28;20393;-74
2022/08/23 10:01:29;;;;;;;1999.90;999.90;;;;;;;;;;5041039;28;20890;-74
2022/08/23 10:04:08;;;;;;;1999.90;999.90;;;;;;;;;;5063418;28;20472;-74
2022/08/23 10:06:36;;;;;;;1999.90;999.90;;;;;;;;;;5069993;28;21321;-75
2022/08/23 10:09:05;;;;;;;1999.90;999.90;;;;;;;;;;5050065;28;20917;-74
2022/08/23 10:11:37;;;;;;;1999.90;999.90;;;;;;;;;;5049093;28;20389;-74
2022/08/23 10:14:06;;;;;;;1999.90;999.90;;;;;;;;;;5038399;28;20929;-74
2022/08/23 10:16:40;;;;;;;1999.90;999.90;;;;;;;;;;5061955;28;20448;-74
2022/08/23 10:19:16;;;;;;;1999.90;999.90;;;;;;;;;;5067892;28;20416;-73
2022/08/23 10:21:50;;;;;;;1999.90;999.90;;;;;;;;;;5040330;28;20389;-75
2022/08/23 10:24:27;;;;;;;1999.90;999.90;;;;;;;;;;5049761;28;20492;-75
2022/08/23 10:29:35;;;;;;;1999.90;999.90;;;;;;;;;;5067015;28;20403;-77
2022/08/23 10:29:57;;;;;;;1999.90;999.90;;;;;;;;;;5066052;28;20406;-75
2022/08/23 10:32:28;;;;;;;1999.90;999.90;;;;;;;;;;5047353;28;20767;-74
2022/08/23 10:35:05;;;;;;;1999.90;999.90;;;;;;;;;;5032566;28;20408;-75
2022/08/23 10:37:40;;;;;;;1999.90;999.90;;;;;;;;;;5060262;28;20405;-78
2022/08/23 10:40:14;;;;;;;1999.90;999.90;;;;;;;;;;5048270;28;20906;-77
2022/08/23 10:42:44;;;;;;;1999.90;999.90;;;;;;;;;;5041662;28;20400;-76
2022/08/23 10:45:21;;;;;;;1999.90;999.90;;;;;;;;;;5044773;28;20451;-76
2022/08/23 10:47:57;;;;;;;1999.90;999.90;;;;;;;;;;5061269;28;20396;-76
2022/08/23 10:50:27;;;;;;;1999.90;999.90;;;;;;;;;;5053368;28;21625;-76
2022/08/23 10:52:57;;;;;;;1999.90;999.90;;;;;;;;;;5051007;28;20397;-77
2022/08/23 10:55:38;;;;;;;1999.90;999.90;;;;;;;;;;5048554;28;20454;-77
2022/08/23 10:58:07;;;;;;;1999.90;999.90;;;;;;;;;;5056211;28;20429;-76
2022/08/23 11:00:37;;;;;;;1999.90;999.90;;;;;;;;;;5058099;28;20404;-76
2022/08/23 11:03:10;;;;;;;1999.90;999.90;;;;;;;;;;5055040;28;20818;-76
2022/08/23 11:05:39;;;;;;;1999.90;999.90;;;;;;;;;;5043996;28;20914;-76
2022/08/23 11:08:31;;;;;;;1999.90;999.90;;;;;;;;;;5051025;28;20943;-76
2022/08/23 11:11:01;;;;;;;1999.90;999.90;;;;;;;;;;5054880;28;20395;-76
2022/08/23 11:13:34;;;;;;;1999.90;999.90;;;;;;;;;;5047348;28;20474;-77
2022/08/23 11:16:07;;;;;;;1999.90;999.90;;;;;;;;;;5039383;28;20415;-76
2022/08/23 11:18:39;;;;;;;1999.90;999.90;;;;;;;;;;5074366;28;20470;-77
2022/08/23 11:21:09;;;;;;;1999.90;999.90;;;;;;;;;;5061209;28;20411;-77
2022/08/23 11:23:43;;;;;;;1999.90;999.90;;;;;;;;;;5047329;28;21016;-78
2022/08/23 11:26:35;;;;;;;1999.90;999.90;;;;;;;;;;5041726;28;20404;-77
2022/08/23 11:29:18;;;;;;;1999.90;999.90;;;;;;;;;;5060446;28;20998;-77
2022/08/23 11:31:58;;;;;;;1999.90;999.90;;;;;;;;;;5040454;28;20468;-76
2022/08/23 11:34:29;;;;;;;1999.90;999.90;;;;;;;;;;5040540;28;20407;-77
2022/08/23 11:37:25;;;;;;;1999.90;999.90;;;;;;;;;;5055366;28;20931;-77
2022/08/23 11:40:08;;;;;;;1999.90;999.90;;;;;;;;;;5057394;28;20910;-76
2022/08/23 11:42:49;;;;;;;1999.90;999.90;;;;;;;;;;5040741;28;20391;-77
2022/08/23 11:45:24;;;;;;;1999.90;999.90;;;;;;;;;;5060411;28;20390;-77
2022/08/23 11:48:06;;;;;;;1999.90;999.90;;;;;;;;;;5071016;28;20424;-76
2022/08/23 11:50:38;;;;;;;1999.90;999.90;;;;;;;;;;5068793;28;20432;-77
2022/08/23 11:53:24;;;;;;;1999.90;999.90;;;;;;;;;;5062206;28;20923;-76
2022/08/23 11:55:59;;;;;;;1999.90;999.90;;;;;;;;;;5073830;28;20560;-78
2022/08/23 11:58:30;;;;;;;1999.90;999.90;;;;;;;;;;5056432;28;21329;-77
2022/08/23 12:01:06;;;;;;;1999.90;999.90;;;;;;;;;;5060571;28;20400;-77
2022/08/23 12:03:42;;;;;;;1999.90;999.90;;;;;;;;;;5049971;28;20361;-77
2022/08/23 12:06:34;;;;;;;1999.90;999.90;;;;;;;;;;5054220;28;20426;-76
2022/08/23 12:09:11;;;;;;;1999.90;999.90;;;;;;;;;;5058667;28;20827;-76
2022/08/23 12:12:09;;;;;;;1999.90;999.90;;;;;;;;;;5051728;28;20413;-76
2022/08/23 12:14:48;;;;;;;1999.90;999.90;;;;;;;;;;5050581;28;20403;-76
2022/08/23 12:17:34;;;;;;;1999.90;999.90;;;;;;;;;;5052243;28;20406;-77
2022/08/23 12:20:10;;;;;;;1999.90;999.90;;;;;;;;;;5068995;28;20388;-76
2022/08/23 12:22:55;;;;;;;1999.90;999.90;;;;;;;;;;5050825;28;20420;-76
2022/08/23 12:25:23;;;;;;;1999.90;999.90;;;;;;;;;;5058252;28;20405;-76
2022/08/23 12:27:55;;;;;;;1999.90;999.90;;;;;;;;;;5057211;28;20892;-78
2022/08/23 12:30:24;;;;;;;1999.90;999.90;;;;;;;;;;5049347;28;20407;-77
2022/08/23 12:32:55;;;;;;;1999.90;999.90;;;;;;;;;;5032776;28;20817;-77
2022/08/23 12:35:31;;;;;;;1999.90;999.90;;;;;;;;;;5039158;28;20444;-77
2022/08/23 12:38:02;;;;;;;1999.90;999.90;;;;;;;;;;5046704;28;20440;-76
2022/08/23 12:40:32;;;;;;;1999.90;999.90;;;;;;;;;;5051858;28;20437;-75
2022/08/23 12:43:03;;;;;;;1999.90;999.90;;;;;;;;;;5043022;28;21097;-77
2022/08/23 12:45:38;;;;;;;1999.90;999.90;;;;;;;;;;5040963;28;20397;-78
2022/08/23 12:48:07;;;;;;;1999.90;999.90;;;;;;;;;;5029248;28;20390;-78
2022/08/23 12:50:37;;;;;;;1999.90;999.90;;;;;;;;;;5044155;28;20415;-76
2022/08/23 12:53:07;;;;;;;1999.90;999.90;;;;;;;;;;5061800;28;20383;-77
2022/08/23 12:55:36;;;;;;;1999.90;999.90;;;;;;;;;;5050925;28;21232;-77
2022/08/23 12:58:05;;;;;;;1999.90;999.90;;;;;;;;;;5052561;28;20397;-77
2022/08/23 13:00:38;;;;;;;1999.90;999.90;;;;;;;;;;5052547;28;20402;-77
2022/08/23 13:03:13;;;;;;;1999.90;999.90;;;;;;;;;;5052489;28;20384;-77
2022/08/23 13:05:43;;;;;;;1999.90;999.90;;;;;;;;;;5051753;28;20480;-77
2022/08/23 13:08:15;;;;;;;1999.90;999.90;;;;;;;;;;5034450;28;20525;-78
2022/08/23 13:10:43;;;;;;;1999.90;999.90;;;;;;;;;;5064902;28;20410;-76
2022/08/23 13:13:13;;;;;;;1999.90;999.90;;;;;;;;;;5053617;28;20387;-76
2022/08/23 13:15:47;;;;;;;1999.90;999.90;;;;;;;;;;5048577;28;21244;-76
2022/08/23 13:18:25;;;;;;;1999.90;999.90;;;;;;;;;;5060420;28;20391;-76
2022/08/23 13:21:12;;;;;;;1999.90;999.90;;;;;;;;;;5045722;28;20430;-76
2022/08/23 13:23:41;;;;;;;1999.90;999.90;;;;;;;;;;5058324;28;20422;-75
2022/08/23 13:26:23;;;;;;;1999.90;999.90;;;;;;;;;;5037477;28;20391;-76
2022/08/23 13:29:00;;;;;;;1999.90;999.90;;;;;;;;;;5046590;28;20915;-75
2022/08/23 13:31:42;;;;;;;1999.90;999.90;;;;;;;;;;5049521;28;20419;-76
2022/08/23 13:34:10;;;;;;;1999.90;999.90;;;;;;;;;;5034277;28;21071;-76
2022/08/23 13:36:42;;;;;;;1999.90;999.90;;;;;;;;;;5048440;28;20408;-75
2022/08/23 13:39:11;;;;;;;1999.90;999.90;;;;;;;;;;5050198;28;20499;-75
2022/08/23 13:41:42;;;;;;;1999.90;999.90;;;;;;;;;;5053613;28;20408;-79
2022/08/23 13:44:10;;;;;;;1999.90;999.90;;;;;;;;;;5046285;28;20419;-76
2022/08/23 13:46:45;;;;;;;1999.90;999.90;;;;;;;;;;5047189;28;20396;-77
2022/08/23 13:49:16;;;;;;;1999.90;999.90;;;;;;;;;;5046169;28;20403;-78
2022/08/23 13:52:01;;;;;;;1999.90;999.90;;;;;;;;;;5047526;28;20419;-78
2022/08/23 13:54:51;;;;;;;1999.90;999.90;;;;;;;;;;5049595;28;20404;-78
2022/08/23 13:57:20;;;;;;;1999.90;999.90;;;;;;;;;;5056508;28;20414;-77
2022/08/23 13:59:49;;;;;;;1999.90;999.90;;;;;;;;;;5047145;28;20482;-77
2022/08/23 14:02:18;;;;;;;1999.90;999.90;;;;;;;;;;5049276;28;20426;-79
2022/08/23 14:04:46;;;;;;;1999.90;999.90;;;;;;;;;;5049281;28;20806;-78
2022/08/23 14:07:14;;;;;;;1999.90;999.90;;;;;;;;;;5048856;28;20425;-77
2022/08/23 14:09:43;;;;;;;1999.90;999.90;;;;;;;;;;5047616;28;20519;-76
2022/08/23 14:12:14;;;;;;;1999.90;999.90;;;;;;;;;;5050083;28;20414;-77
2022/08/23 14:14:42;;;;;;;1999.90;999.90;;;;;;;;;;5049932;28;21065;-77
2022/08/23 14:17:11;;;;;;;1999.90;999.90;;;;;;;;;;5059407;28;21286;-77
2022/08/23 14:19:45;;;;;;;1999.90;999.90;;;;;;;;;;5046478;28;20415;-77
2022/08/23 14:22:33;;;;;;;1999.90;999.90;;;;;;;;;;5048294;28;20426;-77
2022/08/23 14:25:01;;;;;;;1999.90;999.90;;;;;;;;;;5057943;28;20400;-76